sensor_id;sensor_type;location;lat;lon;timestamp;P1;durP1;ratioP1;P2;durP2;ratioP2
20910;SDS011;10615;42.702;23.314;2023-02-04T00:00:42;8.57;;;6.28;;
20910;SDS011;10615;42.702;23.314;2023-02-04T00:01:44;9.35;;;6.05;;
20910;SDS011;10615;42.702;23.314;2023-02-04T00:02:45;8.30;;;5.90;;
20910;SDS011;10615;42.702;23.314;2023-02-04T00:03:46;8.68;;;5.78;;
20910;SDS011;10615;42.702;23.314;2023-02-04T00:04:47;8.05;;;5.75;;
20910;SDS011;10615;42.702;23.314;2023-02-04T00:05:47;9.77;;;6.43;;
20910;SDS011;10615;42.702;23.314;2023-02-04T00:06:48;9.90;;;6.40;;
20910;SDS011;10615;42.702;23.314;2023-02-04T00:07:49;9.73;;;6.10;;
20910;SDS011;10615;42.702;23.314;2023-02-04T00:08:49;8.18;;;6.40;;
20910;SDS011;10615;42.702;23.314;2023-02-04T00:09:50;8.45;;;6.13;;
20910;SDS011;10615;42.702;23.314;2023-02-04T00:10:51;8.40;;;5.85;;
20910;SDS011;10615;42.702;23.314;2023-02-04T00:11:52;10.80;;;6.50;;
20910;SDS011;10615;42.702;23.314;2023-02-04T00:12:52;9.10;;;5.75;;
20910;SDS011;10615;42.702;23.314;2023-02-04T00:13:53;9.40;;;5.93;;
20910;SDS011;10615;42.702;23.314;2023-02-04T00:14:54;9.93;;;6.45;;
20910;SDS011;10615;42.702;23.314;2023-02-04T00:15:54;9.30;;;6.28;;
20910;SDS011;10615;42.702;23.314;2023-02-04T00:16:55;9.02;;;5.70;;
20910;SDS011;10615;42.702;23.314;2023-02-04T00:17:55;9.23;;;6.15;;
20910;SDS011;10615;42.702;23.314;2023-02-04T00:18:56;9.07;;;6.10;;
20910;SDS011;10615;42.702;23.314;2023-02-04T00:19:57;7.60;;;6.00;;
20910;SDS011;10615;42.702;23.314;2023-02-04T00:20:57;10.75;;;5.93;;
20910;SDS011;10615;42.702;23.314;2023-02-04T00:21:58;7.70;;;5.90;;
20910;SDS011;10615;42.702;23.314;2023-02-04T00:22:58;7.35;;;5.82;;
20910;SDS011;10615;42.702;23.314;2023-02-04T00:23:59;7.75;;;5.72;;
20910;SDS011;10615;42.702;23.314;2023-02-04T00:25:00;8.90;;;5.90;;
20910;SDS011;10615;42.702;23.314;2023-02-04T00:26:00;7.18;;;5.78;;
20910;SDS011;10615;42.702;23.314;2023-02-04T00:27:01;9.55;;;5.90;;
20910;SDS011;10615;42.702;23.314;2023-02-04T00:28:03;9.30;;;5.88;;
20910;SDS011;10615;42.702;23.314;2023-02-04T00:29:03;8.52;;;6.13;;
20910;SDS011;10615;42.702;23.314;2023-02-04T00:30:04;7.50;;;5.93;;
20910;SDS011;10615;42.702;23.314;2023-02-04T00:31:06;8.25;;;5.80;;
20910;SDS011;10615;42.702;23.314;2023-02-04T00:32:06;8.63;;;5.63;;
20910;SDS011;10615;42.702;23.314;2023-02-04T00:33:07;6.70;;;5.50;;
20910;SDS011;10615;42.702;23.314;2023-02-04T00:34:08;7.57;;;5.30;;
20910;SDS011;10615;42.702;23.314;2023-02-04T00:35:08;8.25;;;5.68;;
20910;SDS011;10615;42.702;23.314;2023-02-04T00:36:09;6.22;;;4.88;;
20910;SDS011;10615;42.702;23.314;2023-02-04T00:37:09;7.70;;;5.00;;
20910;SDS011;10615;42.702;23.314;2023-02-04T00:38:10;6.80;;;5.05;;
20910;SDS011;10615;42.702;23.314;2023-02-04T00:39:11;8.38;;;5.18;;
20910;SDS011;10615;42.702;23.314;2023-02-04T00:40:12;6.35;;;5.13;;
20910;SDS011;10615;42.702;23.314;2023-02-04T00:41:12;8.40;;;5.50;;
20910;SDS011;10615;42.702;23.314;2023-02-04T00:42:13;10.27;;;6.13;;
20910;SDS011;10615;42.702;23.314;2023-02-04T00:43:14;10.98;;;5.85;;
20910;SDS011;10615;42.702;23.314;2023-02-04T00:44:14;7.30;;;5.38;;
20910;SDS011;10615;42.702;23.314;2023-02-04T00:45:15;6.45;;;5.03;;
20910;SDS011;10615;42.702;23.314;2023-02-04T00:46:16;8.90;;;5.40;;
20910;SDS011;10615;42.702;23.314;2023-02-04T00:47:16;8.35;;;5.45;;
20910;SDS011;10615;42.702;23.314;2023-02-04T00:48:17;9.57;;;5.50;;
20910;SDS011;10615;42.702;23.314;2023-02-04T00:49:17;8.48;;;5.85;;
20910;SDS011;10615;42.702;23.314;2023-02-04T00:50:18;7.43;;;5.28;;
20910;SDS011;10615;42.702;23.314;2023-02-04T00:51:19;10.43;;;5.53;;
20910;SDS011;10615;42.702;23.314;2023-02-04T00:52:19;6.68;;;4.80;;
20910;SDS011;10615;42.702;23.314;2023-02-04T00:53:20;7.75;;;5.10;;
20910;SDS011;10615;42.702;23.314;2023-02-04T00:54:21;7.50;;;4.85;;
20910;SDS011;10615;42.702;23.314;2023-02-04T00:55:21;7.93;;;5.32;;
20910;SDS011;10615;42.702;23.314;2023-02-04T00:56:22;7.50;;;5.30;;
20910;SDS011;10615;42.702;23.314;2023-02-04T00:57:23;6.78;;;5.30;;
20910;SDS011;10615;42.702;23.314;2023-02-04T00:58:23;7.10;;;5.57;;
20910;SDS011;10615;42.702;23.314;2023-02-04T00:59:24;6.45;;;4.97;;
20910;SDS011;10615;42.702;23.314;2023-02-04T01:00:25;8.52;;;5.13;;
20910;SDS011;10615;42.702;23.314;2023-02-04T01:01:25;9.10;;;5.10;;
20910;SDS011;10615;42.702;23.314;2023-02-04T01:02:26;7.15;;;5.18;;
20910;SDS011;10615;42.702;23.314;2023-02-04T01:03:27;8.05;;;5.00;;
20910;SDS011;10615;42.702;23.314;2023-02-04T01:04:27;6.97;;;4.90;;
20910;SDS011;10615;42.702;23.314;2023-02-04T01:05:28;6.78;;;4.40;;
20910;SDS011;10615;42.702;23.314;2023-02-04T01:06:29;6.90;;;4.80;;
20910;SDS011;10615;42.702;23.314;2023-02-04T01:07:29;7.05;;;4.88;;
20910;SDS011;10615;42.702;23.314;2023-02-04T01:08:30;5.85;;;4.40;;
20910;SDS011;10615;42.702;23.314;2023-02-04T01:09:31;6.55;;;4.85;;
20910;SDS011;10615;42.702;23.314;2023-02-04T01:10:31;7.13;;;4.85;;
20910;SDS011;10615;42.702;23.314;2023-02-04T01:11:32;7.88;;;5.15;;
20910;SDS011;10615;42.702;23.314;2023-02-04T01:12:33;7.25;;;4.88;;
20910;SDS011;10615;42.702;23.314;2023-02-04T01:13:34;6.63;;;4.60;;
20910;SDS011;10615;42.702;23.314;2023-02-04T01:14:34;8.20;;;5.18;;
20910;SDS011;10615;42.702;23.314;2023-02-04T01:15:35;7.40;;;4.90;;
20910;SDS011;10615;42.702;23.314;2023-02-04T01:16:36;7.45;;;4.88;;
20910;SDS011;10615;42.702;23.314;2023-02-04T01:17:36;8.80;;;4.80;;
20910;SDS011;10615;42.702;23.314;2023-02-04T01:18:37;10.23;;;4.85;;
20910;SDS011;10615;42.702;23.314;2023-02-04T01:19:38;8.30;;;4.82;;
20910;SDS011;10615;42.702;23.314;2023-02-04T01:20:38;9.07;;;4.65;;
20910;SDS011;10615;42.702;23.314;2023-02-04T01:21:39;6.78;;;4.40;;
20910;SDS011;10615;42.702;23.314;2023-02-04T01:22:40;7.22;;;4.65;;
20910;SDS011;10615;42.702;23.314;2023-02-04T01:23:40;8.63;;;5.32;;
20910;SDS011;10615;42.702;23.314;2023-02-04T01:24:41;9.70;;;5.05;;
20910;SDS011;10615;42.702;23.314;2023-02-04T01:25:42;8.38;;;4.90;;
20910;SDS011;10615;42.702;23.314;2023-02-04T01:26:42;8.90;;;4.78;;
20910;SDS011;10615;42.702;23.314;2023-02-04T01:27:43;7.05;;;4.97;;
20910;SDS011;10615;42.702;23.314;2023-02-04T01:28:44;7.78;;;4.50;;
20910;SDS011;10615;42.702;23.314;2023-02-04T01:29:45;9.73;;;4.80;;
20910;SDS011;10615;42.702;23.314;2023-02-04T01:30:46;8.63;;;4.88;;
20910;SDS011;10615;42.702;23.314;2023-02-04T01:31:46;6.10;;;4.43;;
20910;SDS011;10615;42.702;23.314;2023-02-04T01:32:47;6.72;;;4.95;;
20910;SDS011;10615;42.702;23.314;2023-02-04T01:33:48;7.13;;;4.30;;
20910;SDS011;10615;42.702;23.314;2023-02-04T01:34:48;9.07;;;4.63;;
20910;SDS011;10615;42.702;23.314;2023-02-04T01:35:49;6.65;;;4.93;;
20910;SDS011;10615;42.702;23.314;2023-02-04T01:36:49;9.70;;;4.50;;
20910;SDS011;10615;42.702;23.314;2023-02-04T01:37:50;6.82;;;4.40;;
20910;SDS011;10615;42.702;23.314;2023-02-04T01:38:51;10.35;;;4.80;;
20910;SDS011;10615;42.702;23.314;2023-02-04T01:39:51;9.27;;;5.10;;
20910;SDS011;10615;42.702;23.314;2023-02-04T01:40:52;6.78;;;4.63;;
20910;SDS011;10615;42.702;23.314;2023-02-04T01:41:53;7.18;;;4.28;;
20910;SDS011;10615;42.702;23.314;2023-02-04T01:42:54;6.70;;;4.32;;
20910;SDS011;10615;42.702;23.314;2023-02-04T01:43:54;6.63;;;4.65;;
20910;SDS011;10615;42.702;23.314;2023-02-04T01:44:55;7.85;;;4.45;;
20910;SDS011;10615;42.702;23.314;2023-02-04T01:45:56;7.75;;;4.75;;
20910;SDS011;10615;42.702;23.314;2023-02-04T01:46:57;6.22;;;4.60;;
20910;SDS011;10615;42.702;23.314;2023-02-04T01:47:58;10.15;;;4.60;;
20910;SDS011;10615;42.702;23.314;2023-02-04T01:49:00;6.53;;;4.88;;
20910;SDS011;10615;42.702;23.314;2023-02-04T01:50:01;9.98;;;4.78;;
20910;SDS011;10615;42.702;23.314;2023-02-04T01:51:03;7.10;;;4.30;;
20910;SDS011;10615;42.702;23.314;2023-02-04T01:52:05;9.80;;;4.93;;
20910;SDS011;10615;42.702;23.314;2023-02-04T01:53:08;6.78;;;4.70;;
20910;SDS011;10615;42.702;23.314;2023-02-04T01:54:11;9.50;;;4.65;;
20910;SDS011;10615;42.702;23.314;2023-02-04T01:55:15;8.65;;;4.53;;
20910;SDS011;10615;42.702;23.314;2023-02-04T01:56:18;8.68;;;4.60;;
20910;SDS011;10615;42.702;23.314;2023-02-04T01:57:21;7.82;;;5.05;;
20910;SDS011;10615;42.702;23.314;2023-02-04T01:58:21;6.85;;;4.68;;
20910;SDS011;10615;42.702;23.314;2023-02-04T01:59:22;8.60;;;5.10;;
20910;SDS011;10615;42.702;23.314;2023-02-04T02:00:27;5.93;;;4.43;;
20910;SDS011;10615;42.702;23.314;2023-02-04T02:03:43;8.30;;;4.75;;
20910;SDS011;10615;42.702;23.314;2023-02-04T02:04:43;9.57;;;5.60;;
20910;SDS011;10615;42.702;23.314;2023-02-04T02:05:48;8.15;;;5.60;;
20910;SDS011;10615;42.702;23.314;2023-02-04T02:06:54;7.97;;;6.13;;
20910;SDS011;10615;42.702;23.314;2023-02-04T02:07:57;9.95;;;6.05;;
20910;SDS011;10615;42.702;23.314;2023-02-04T02:09:00;8.45;;;6.20;;
20910;SDS011;10615;42.702;23.314;2023-02-04T02:10:02;9.05;;;6.43;;
20910;SDS011;10615;42.702;23.314;2023-02-04T02:11:04;8.90;;;6.55;;
20910;SDS011;10615;42.702;23.314;2023-02-04T02:12:05;8.48;;;6.55;;
20910;SDS011;10615;42.702;23.314;2023-02-04T02:13:06;11.93;;;7.28;;
20910;SDS011;10615;42.702;23.314;2023-02-04T02:14:10;11.07;;;7.15;;
20910;SDS011;10615;42.702;23.314;2023-02-04T02:15:11;11.45;;;6.50;;
20910;SDS011;10615;42.702;23.314;2023-02-04T02:16:12;10.13;;;7.00;;
20910;SDS011;10615;42.702;23.314;2023-02-04T02:17:13;12.88;;;7.30;;
20910;SDS011;10615;42.702;23.314;2023-02-04T02:18:14;9.50;;;6.65;;
20910;SDS011;10615;42.702;23.314;2023-02-04T02:19:16;8.90;;;6.90;;
20910;SDS011;10615;42.702;23.314;2023-02-04T02:20:25;10.77;;;7.25;;
20910;SDS011;10615;42.702;23.314;2023-02-04T02:21:39;13.80;;;7.10;;
20910;SDS011;10615;42.702;23.314;2023-02-04T02:25:26;11.80;;;7.45;;
20910;SDS011;10615;42.702;23.314;2023-02-04T02:26:27;13.38;;;8.10;;
20910;SDS011;10615;42.702;23.314;2023-02-04T02:27:28;12.30;;;7.40;;
20910;SDS011;10615;42.702;23.314;2023-02-04T02:28:28;10.60;;;8.35;;
20910;SDS011;10615;42.702;23.314;2023-02-04T02:29:29;10.00;;;8.10;;
20910;SDS011;10615;42.702;23.314;2023-02-04T02:30:30;11.45;;;7.85;;
20910;SDS011;10615;42.702;23.314;2023-02-04T02:31:30;10.02;;;7.65;;
20910;SDS011;10615;42.702;23.314;2023-02-04T02:32:31;10.68;;;7.55;;
20910;SDS011;10615;42.702;23.314;2023-02-04T02:33:32;11.57;;;8.23;;
20910;SDS011;10615;42.702;23.314;2023-02-04T02:34:33;12.18;;;8.48;;
20910;SDS011;10615;42.702;23.314;2023-02-04T02:35:34;14.10;;;8.75;;
20910;SDS011;10615;42.702;23.314;2023-02-04T02:36:35;13.57;;;8.32;;
20910;SDS011;10615;42.702;23.314;2023-02-04T02:37:36;13.35;;;8.25;;
20910;SDS011;10615;42.702;23.314;2023-02-04T02:38:37;11.00;;;7.75;;
20910;SDS011;10615;42.702;23.314;2023-02-04T02:39:38;11.93;;;8.43;;
20910;SDS011;10615;42.702;23.314;2023-02-04T02:40:42;11.38;;;7.70;;
20910;SDS011;10615;42.702;23.314;2023-02-04T02:41:43;10.30;;;8.27;;
20910;SDS011;10615;42.702;23.314;2023-02-04T02:42:44;11.52;;;8.10;;
20910;SDS011;10615;42.702;23.314;2023-02-04T02:43:49;13.38;;;8.95;;
20910;SDS011;10615;42.702;23.314;2023-02-04T02:44:50;11.00;;;8.20;;
20910;SDS011;10615;42.702;23.314;2023-02-04T02:45:51;11.98;;;8.32;;
20910;SDS011;10615;42.702;23.314;2023-02-04T02:46:53;11.48;;;8.85;;
20910;SDS011;10615;42.702;23.314;2023-02-04T02:47:55;10.88;;;8.35;;
20910;SDS011;10615;42.702;23.314;2023-02-04T02:48:58;11.02;;;8.18;;
20910;SDS011;10615;42.702;23.314;2023-02-04T02:49:59;12.15;;;8.35;;
20910;SDS011;10615;42.702;23.314;2023-02-04T02:50:59;10.52;;;7.68;;
20910;SDS011;10615;42.702;23.314;2023-02-04T02:52:00;11.30;;;7.85;;
20910;SDS011;10615;42.702;23.314;2023-02-04T02:53:01;9.07;;;7.57;;
20910;SDS011;10615;42.702;23.314;2023-02-04T02:54:03;11.82;;;7.57;;
20910;SDS011;10615;42.702;23.314;2023-02-04T02:55:03;12.30;;;7.80;;
20910;SDS011;10615;42.702;23.314;2023-02-04T02:56:05;13.88;;;7.43;;
20910;SDS011;10615;42.702;23.314;2023-02-04T02:57:18;8.95;;;6.97;;
20910;SDS011;10615;42.702;23.314;2023-02-04T02:58:29;10.32;;;7.05;;
20910;SDS011;10615;42.702;23.314;2023-02-04T03:00:32;11.52;;;6.90;;
20910;SDS011;10615;42.702;23.314;2023-02-04T03:01:33;10.10;;;7.80;;
20910;SDS011;10615;42.702;23.314;2023-02-04T03:02:34;13.98;;;8.80;;
20910;SDS011;10615;42.702;23.314;2023-02-04T03:03:36;12.50;;;7.55;;
20910;SDS011;10615;42.702;23.314;2023-02-04T03:04:51;11.68;;;7.85;;
20910;SDS011;10615;42.702;23.314;2023-02-04T03:06:28;12.55;;;7.93;;
20910;SDS011;10615;42.702;23.314;2023-02-04T03:07:23;11.40;;;8.13;;
20910;SDS011;10615;42.702;23.314;2023-02-04T03:08:24;13.73;;;7.85;;
20910;SDS011;10615;42.702;23.314;2023-02-04T03:09:25;10.73;;;7.45;;
20910;SDS011;10615;42.702;23.314;2023-02-04T03:10:27;14.98;;;7.93;;
20910;SDS011;10615;42.702;23.314;2023-02-04T03:11:28;11.35;;;8.25;;
20910;SDS011;10615;42.702;23.314;2023-02-04T03:12:29;14.20;;;8.40;;
20910;SDS011;10615;42.702;23.314;2023-02-04T03:13:29;12.05;;;7.65;;
20910;SDS011;10615;42.702;23.314;2023-02-04T03:14:32;12.27;;;8.60;;
20910;SDS011;10615;42.702;23.314;2023-02-04T03:15:33;10.88;;;7.32;;
20910;SDS011;10615;42.702;23.314;2023-02-04T03:16:35;12.32;;;7.15;;
20910;SDS011;10615;42.702;23.314;2023-02-04T03:17:36;8.88;;;6.60;;
20910;SDS011;10615;42.702;23.314;2023-02-04T03:18:38;10.85;;;7.10;;
20910;SDS011;10615;42.702;23.314;2023-02-04T03:19:38;9.02;;;6.45;;
20910;SDS011;10615;42.702;23.314;2023-02-04T03:20:39;10.75;;;6.53;;
20910;SDS011;10615;42.702;23.314;2023-02-04T03:21:41;9.52;;;6.10;;
20910;SDS011;10615;42.702;23.314;2023-02-04T03:22:42;10.02;;;5.93;;
20910;SDS011;10615;42.702;23.314;2023-02-04T03:23:43;8.35;;;4.80;;
20910;SDS011;10615;42.702;23.314;2023-02-04T03:24:44;8.45;;;4.97;;
20910;SDS011;10615;42.702;23.314;2023-02-04T03:25:44;7.28;;;4.97;;
20910;SDS011;10615;42.702;23.314;2023-02-04T03:26:45;7.88;;;5.32;;
20910;SDS011;10615;42.702;23.314;2023-02-04T03:27:46;8.50;;;5.32;;
20910;SDS011;10615;42.702;23.314;2023-02-04T03:28:46;6.47;;;5.03;;
20910;SDS011;10615;42.702;23.314;2023-02-04T03:29:47;12.73;;;4.72;;
20910;SDS011;10615;42.702;23.314;2023-02-04T03:30:48;8.07;;;4.72;;
20910;SDS011;10615;42.702;23.314;2023-02-04T03:31:52;8.55;;;4.70;;
20910;SDS011;10615;42.702;23.314;2023-02-04T03:32:54;6.53;;;4.85;;
20910;SDS011;10615;42.702;23.314;2023-02-04T03:33:55;12.20;;;4.90;;
20910;SDS011;10615;42.702;23.314;2023-02-04T03:34:55;7.50;;;4.85;;
20910;SDS011;10615;42.702;23.314;2023-02-04T03:35:57;8.75;;;4.90;;
20910;SDS011;10615;42.702;23.314;2023-02-04T03:36:58;8.85;;;4.68;;
20910;SDS011;10615;42.702;23.314;2023-02-04T03:37:58;7.57;;;4.68;;
20910;SDS011;10615;42.702;23.314;2023-02-04T03:38:59;7.80;;;4.63;;
20910;SDS011;10615;42.702;23.314;2023-02-04T03:40:00;6.75;;;5.35;;
20910;SDS011;10615;42.702;23.314;2023-02-04T03:41:02;11.48;;;6.30;;
20910;SDS011;10615;42.702;23.314;2023-02-04T03:42:02;9.45;;;6.15;;
20910;SDS011;10615;42.702;23.314;2023-02-04T03:43:03;11.07;;;6.28;;
20910;SDS011;10615;42.702;23.314;2023-02-04T03:44:04;8.65;;;6.30;;
20910;SDS011;10615;42.702;23.314;2023-02-04T03:45:04;12.80;;;6.22;;
20910;SDS011;10615;42.702;23.314;2023-02-04T03:46:05;8.43;;;5.70;;
20910;SDS011;10615;42.702;23.314;2023-02-04T03:47:06;9.52;;;6.15;;
20910;SDS011;10615;42.702;23.314;2023-02-04T03:48:07;8.77;;;5.15;;
20910;SDS011;10615;42.702;23.314;2023-02-04T03:49:07;8.07;;;5.65;;
20910;SDS011;10615;42.702;23.314;2023-02-04T03:50:08;12.18;;;6.97;;
20910;SDS011;10615;42.702;23.314;2023-02-04T03:51:11;8.85;;;6.50;;
20910;SDS011;10615;42.702;23.314;2023-02-04T03:52:12;12.05;;;6.45;;
20910;SDS011;10615;42.702;23.314;2023-02-04T03:53:12;10.60;;;6.95;;
20910;SDS011;10615;42.702;23.314;2023-02-04T03:54:13;13.93;;;6.97;;
20910;SDS011;10615;42.702;23.314;2023-02-04T03:55:13;9.65;;;7.05;;
20910;SDS011;10615;42.702;23.314;2023-02-04T03:56:14;15.30;;;7.15;;
20910;SDS011;10615;42.702;23.314;2023-02-04T03:57:15;14.40;;;7.43;;
20910;SDS011;10615;42.702;23.314;2023-02-04T03:58:16;13.93;;;8.43;;
20910;SDS011;10615;42.702;23.314;2023-02-04T03:59:16;11.63;;;7.95;;
20910;SDS011;10615;42.702;23.314;2023-02-04T04:00:17;12.23;;;8.38;;
20910;SDS011;10615;42.702;23.314;2023-02-04T04:01:18;13.70;;;7.90;;
20910;SDS011;10615;42.702;23.314;2023-02-04T04:02:19;11.00;;;7.00;;
20910;SDS011;10615;42.702;23.314;2023-02-04T04:03:19;9.68;;;7.05;;
20910;SDS011;10615;42.702;23.314;2023-02-04T04:04:20;11.80;;;7.00;;
20910;SDS011;10615;42.702;23.314;2023-02-04T04:05:20;10.48;;;7.13;;
20910;SDS011;10615;42.702;23.314;2023-02-04T04:06:21;14.50;;;7.65;;
20910;SDS011;10615;42.702;23.314;2023-02-04T04:07:22;12.18;;;8.32;;
20910;SDS011;10615;42.702;23.314;2023-02-04T04:08:22;10.02;;;7.10;;
20910;SDS011;10615;42.702;23.314;2023-02-04T04:09:24;13.10;;;7.53;;
20910;SDS011;10615;42.702;23.314;2023-02-04T04:10:25;12.07;;;6.88;;
20910;SDS011;10615;42.702;23.314;2023-02-04T04:11:25;9.95;;;7.38;;
20910;SDS011;10615;42.702;23.314;2023-02-04T04:12:26;10.38;;;7.43;;
20910;SDS011;10615;42.702;23.314;2023-02-04T04:13:27;12.57;;;7.40;;
20910;SDS011;10615;42.702;23.314;2023-02-04T04:14:27;10.77;;;7.07;;
20910;SDS011;10615;42.702;23.314;2023-02-04T04:15:29;11.70;;;7.30;;
20910;SDS011;10615;42.702;23.314;2023-02-04T04:16:30;11.07;;;7.53;;
20910;SDS011;10615;42.702;23.314;2023-02-04T04:17:30;9.27;;;7.32;;
20910;SDS011;10615;42.702;23.314;2023-02-04T04:18:31;11.02;;;7.40;;
20910;SDS011;10615;42.702;23.314;2023-02-04T04:19:32;9.98;;;7.35;;
20910;SDS011;10615;42.702;23.314;2023-02-04T04:20:32;12.43;;;8.07;;
20910;SDS011;10615;42.702;23.314;2023-02-04T04:21:33;11.07;;;7.68;;
20910;SDS011;10615;42.702;23.314;2023-02-04T04:22:34;14.88;;;8.07;;
20910;SDS011;10615;42.702;23.314;2023-02-04T04:23:34;13.27;;;7.78;;
20910;SDS011;10615;42.702;23.314;2023-02-04T04:24:35;11.90;;;7.68;;
20910;SDS011;10615;42.702;23.314;2023-02-04T04:25:36;11.88;;;7.70;;
20910;SDS011;10615;42.702;23.314;2023-02-04T04:26:36;13.02;;;7.50;;
20910;SDS011;10615;42.702;23.314;2023-02-04T04:27:37;11.27;;;7.43;;
20910;SDS011;10615;42.702;23.314;2023-02-04T04:28:38;9.73;;;7.30;;
20910;SDS011;10615;42.702;23.314;2023-02-04T04:29:38;11.40;;;7.57;;
20910;SDS011;10615;42.702;23.314;2023-02-04T04:30:39;14.70;;;7.93;;
20910;SDS011;10615;42.702;23.314;2023-02-04T04:31:40;10.55;;;7.35;;
20910;SDS011;10615;42.702;23.314;2023-02-04T04:32:40;11.93;;;7.78;;
20910;SDS011;10615;42.702;23.314;2023-02-04T04:33:41;13.52;;;7.88;;
20910;SDS011;10615;42.702;23.314;2023-02-04T04:34:41;11.85;;;7.82;;
20910;SDS011;10615;42.702;23.314;2023-02-04T04:35:42;8.80;;;6.93;;
20910;SDS011;10615;42.702;23.314;2023-02-04T04:36:43;12.43;;;6.50;;
20910;SDS011;10615;42.702;23.314;2023-02-04T04:37:43;11.30;;;7.70;;
20910;SDS011;10615;42.702;23.314;2023-02-04T04:38:44;14.45;;;7.80;;
20910;SDS011;10615;42.702;23.314;2023-02-04T04:39:45;8.73;;;7.10;;
20910;SDS011;10615;42.702;23.314;2023-02-04T04:40:45;10.73;;;7.05;;
20910;SDS011;10615;42.702;23.314;2023-02-04T04:41:46;8.48;;;6.40;;
20910;SDS011;10615;42.702;23.314;2023-02-04T04:42:47;8.55;;;6.22;;
20910;SDS011;10615;42.702;23.314;2023-02-04T04:43:48;10.07;;;6.88;;
20910;SDS011;10615;42.702;23.314;2023-02-04T04:44:48;9.68;;;6.70;;
20910;SDS011;10615;42.702;23.314;2023-02-04T04:45:49;9.02;;;6.60;;
20910;SDS011;10615;42.702;23.314;2023-02-04T04:46:49;10.80;;;6.25;;
20910;SDS011;10615;42.702;23.314;2023-02-04T04:47:50;13.95;;;6.70;;
20910;SDS011;10615;42.702;23.314;2023-02-04T04:48:51;11.32;;;6.47;;
20910;SDS011;10615;42.702;23.314;2023-02-04T04:49:51;8.55;;;6.30;;
20910;SDS011;10615;42.702;23.314;2023-02-04T04:50:52;7.57;;;6.10;;
20910;SDS011;10615;42.702;23.314;2023-02-04T04:51:53;11.15;;;6.30;;
20910;SDS011;10615;42.702;23.314;2023-02-04T04:52:53;9.80;;;5.82;;
20910;SDS011;10615;42.702;23.314;2023-02-04T04:53:54;9.18;;;5.88;;
20910;SDS011;10615;42.702;23.314;2023-02-04T04:54:54;7.65;;;5.45;;
20910;SDS011;10615;42.702;23.314;2023-02-04T04:55:55;12.10;;;6.00;;
20910;SDS011;10615;42.702;23.314;2023-02-04T04:56:56;10.18;;;5.90;;
20910;SDS011;10615;42.702;23.314;2023-02-04T04:57:56;9.30;;;5.47;;
20910;SDS011;10615;42.702;23.314;2023-02-04T04:58:57;8.88;;;5.88;;
20910;SDS011;10615;42.702;23.314;2023-02-04T04:59:58;9.63;;;5.82;;
20910;SDS011;10615;42.702;23.314;2023-02-04T05:00:58;7.13;;;4.95;;
20910;SDS011;10615;42.702;23.314;2023-02-04T05:02:18;4.25;;;3.13;;
20910;SDS011;10615;42.702;23.314;2023-02-04T05:03:18;4.10;;;2.60;;
20910;SDS011;10615;42.702;23.314;2023-02-04T05:04:19;7.68;;;2.17;;
20910;SDS011;10615;42.702;23.314;2023-02-04T05:05:20;3.47;;;1.80;;
20910;SDS011;10615;42.702;23.314;2023-02-04T05:06:20;2.75;;;1.48;;
20910;SDS011;10615;42.702;23.314;2023-02-04T05:07:24;3.60;;;1.30;;
20910;SDS011;10615;42.702;23.314;2023-02-04T05:08:25;5.20;;;1.00;;
20910;SDS011;10615;42.702;23.314;2023-02-04T05:09:25;2.50;;;1.10;;
20910;SDS011;10615;42.702;23.314;2023-02-04T05:10:26;1.77;;;1.27;;
20910;SDS011;10615;42.702;23.314;2023-02-04T05:11:27;2.17;;;1.42;;
20910;SDS011;10615;42.702;23.314;2023-02-04T05:12:27;2.70;;;1.75;;
20910;SDS011;10615;42.702;23.314;2023-02-04T05:13:28;3.67;;;2.00;;
20910;SDS011;10615;42.702;23.314;2023-02-04T05:14:29;1.30;;;1.13;;
20910;SDS011;10615;42.702;23.314;2023-02-04T05:15:29;1.40;;;1.20;;
20910;SDS011;10615;42.702;23.314;2023-02-04T05:16:30;2.40;;;1.50;;
20910;SDS011;10615;42.702;23.314;2023-02-04T05:17:31;2.97;;;1.60;;
20910;SDS011;10615;42.702;23.314;2023-02-04T05:18:31;2.10;;;1.40;;
20910;SDS011;10615;42.702;23.314;2023-02-04T05:19:32;3.17;;;1.50;;
20910;SDS011;10615;42.702;23.314;2023-02-04T05:20:33;2.92;;;1.52;;
20910;SDS011;10615;42.702;23.314;2023-02-04T05:21:33;2.97;;;1.42;;
20910;SDS011;10615;42.702;23.314;2023-02-04T05:22:34;4.03;;;1.50;;
20910;SDS011;10615;42.702;23.314;2023-02-04T05:23:34;1.48;;;1.38;;
20910;SDS011;10615;42.702;23.314;2023-02-04T05:24:35;2.88;;;1.45;;
20910;SDS011;10615;42.702;23.314;2023-02-04T05:25:36;2.13;;;1.30;;
20910;SDS011;10615;42.702;23.314;2023-02-04T05:26:37;3.38;;;1.48;;
20910;SDS011;10615;42.702;23.314;2023-02-04T05:27:37;1.92;;;1.33;;
20910;SDS011;10615;42.702;23.314;2023-02-04T05:28:38;1.95;;;1.20;;
20910;SDS011;10615;42.702;23.314;2023-02-04T05:29:39;2.05;;;1.63;;
20910;SDS011;10615;42.702;23.314;2023-02-04T05:30:39;2.35;;;1.40;;
20910;SDS011;10615;42.702;23.314;2023-02-04T05:31:40;1.40;;;1.08;;
20910;SDS011;10615;42.702;23.314;2023-02-04T05:32:41;2.50;;;1.30;;
20910;SDS011;10615;42.702;23.314;2023-02-04T05:33:41;5.18;;;1.35;;
20910;SDS011;10615;42.702;23.314;2023-02-04T05:34:42;3.45;;;1.67;;
20910;SDS011;10615;42.702;23.314;2023-02-04T05:35:43;3.80;;;1.45;;
20910;SDS011;10615;42.702;23.314;2023-02-04T05:36:43;1.77;;;1.38;;
20910;SDS011;10615;42.702;23.314;2023-02-04T05:37:44;3.90;;;1.60;;
20910;SDS011;10615;42.702;23.314;2023-02-04T05:38:45;4.70;;;1.50;;
20910;SDS011;10615;42.702;23.314;2023-02-04T05:39:45;3.60;;;1.40;;
20910;SDS011;10615;42.702;23.314;2023-02-04T05:40:46;3.00;;;1.45;;
20910;SDS011;10615;42.702;23.314;2023-02-04T05:41:47;5.85;;;1.83;;
20910;SDS011;10615;42.702;23.314;2023-02-04T05:42:48;2.22;;;1.30;;
20910;SDS011;10615;42.702;23.314;2023-02-04T05:43:48;2.05;;;1.40;;
20910;SDS011;10615;42.702;23.314;2023-02-04T05:44:49;2.40;;;1.20;;
20910;SDS011;10615;42.702;23.314;2023-02-04T05:45:50;2.17;;;1.40;;
20910;SDS011;10615;42.702;23.314;2023-02-04T05:46:50;3.80;;;1.67;;
20910;SDS011;10615;42.702;23.314;2023-02-04T05:47:51;2.90;;;1.50;;
20910;SDS011;10615;42.702;23.314;2023-02-04T05:48:53;2.53;;;1.48;;
20910;SDS011;10615;42.702;23.314;2023-02-04T05:49:54;3.45;;;1.52;;
20910;SDS011;10615;42.702;23.314;2023-02-04T05:50:55;5.40;;;1.80;;
20910;SDS011;10615;42.702;23.314;2023-02-04T05:51:55;4.40;;;1.92;;
20910;SDS011;10615;42.702;23.314;2023-02-04T05:52:56;4.60;;;1.88;;
20910;SDS011;10615;42.702;23.314;2023-02-04T05:53:57;6.47;;;2.00;;
20910;SDS011;10615;42.702;23.314;2023-02-04T05:54:57;3.35;;;1.80;;
20910;SDS011;10615;42.702;23.314;2023-02-04T05:55:58;3.45;;;1.90;;
20910;SDS011;10615;42.702;23.314;2023-02-04T05:56:59;3.92;;;1.85;;
20910;SDS011;10615;42.702;23.314;2023-02-04T05:57:59;5.20;;;2.10;;
20910;SDS011;10615;42.702;23.314;2023-02-04T05:59:00;4.80;;;2.53;;
20910;SDS011;10615;42.702;23.314;2023-02-04T06:00:01;4.53;;;2.72;;
20910;SDS011;10615;42.702;23.314;2023-02-04T06:01:02;4.43;;;1.95;;
20910;SDS011;10615;42.702;23.314;2023-02-04T06:02:03;6.07;;;1.77;;
20910;SDS011;10615;42.702;23.314;2023-02-04T06:03:04;6.18;;;2.30;;
20910;SDS011;10615;42.702;23.314;2023-02-04T06:04:05;4.53;;;2.55;;
20910;SDS011;10615;42.702;23.314;2023-02-04T06:05:06;3.67;;;2.55;;
20910;SDS011;10615;42.702;23.314;2023-02-04T06:06:07;6.95;;;2.60;;
20910;SDS011;10615;42.702;23.314;2023-02-04T06:07:07;8.80;;;2.80;;
20910;SDS011;10615;42.702;23.314;2023-02-04T06:08:08;5.45;;;2.80;;